sensor_id;sensor_type;location;lat;lon;timestamp;temperature;humidity
17762;DHT22;9005;48.838;10.112;2023-04-22T08:14:16;15.50;99.90
17762;DHT22;9005;48.838;10.112;2023-04-22T08:16:44;15.60;99.90
17762;DHT22;9005;48.838;10.112;2023-04-22T08:19:10;15.60;99.90
17762;DHT22;9005;48.838;10.112;2023-04-22T08:21:37;15.60;99.90
17762;DHT22;9005;48.838;10.112;2023-04-22T08:24:04;15.70;99.90
17762;DHT22;9005;48.838;10.112;2023-04-22T08:26:31;15.80;99.90
17762;DHT22;9005;48.838;10.112;2023-04-22T08:28:59;15.90;99.90
17762;DHT22;9005;48.838;10.112;2023-04-22T08:31:26;16.30;99.90
17762;DHT22;9005;48.838;10.112;2023-04-22T08:33:54;16.30;99.90
17762;DHT22;9005;48.838;10.112;2023-04-22T08:36:21;15.70;99.90
17762;DHT22;9005;48.838;10.112;2023-04-22T08:38:50;16.60;99.90
17762;DHT22;9005;48.838;10.112;2023-04-22T08:41:17;16.70;99.90
17762;DHT22;9005;48.838;10.112;2023-04-22T08:43:45;16.70;99.90
17762;DHT22;9005;48.838;10.112;2023-04-22T08:46:12;16.80;96.80
17762;DHT22;9005;48.838;10.112;2023-04-22T08:48:40;16.80;95.00
17762;DHT22;9005;48.838;10.112;2023-04-22T08:51:08;16.80;94.80
17762;DHT22;9005;48.838;10.112;2023-04-22T08:53:36;16.90;93.90
17762;DHT22;9005;48.838;10.112;2023-04-22T08:56:04;17.10;95.90
17762;DHT22;9005;48.838;10.112;2023-04-22T08:58:31;17.30;92.00
17762;DHT22;9005;48.838;10.112;2023-04-22T09:00:59;17.60;94.30
17762;DHT22;9005;48.838;10.112;2023-04-22T09:03:26;17.90;88.10
17762;DHT22;9005;48.838;10.112;2023-04-22T09:05:53;18.10;88.80
17762;DHT22;9005;48.838;10.112;2023-04-22T09:10:49;18.60;79.60
17762;DHT22;9005;48.838;10.112;2023-04-22T09:13:16;18.90;74.00
17762;DHT22;9005;48.838;10.112;2023-04-22T09:15:44;19.10;63.90
17762;DHT22;9005;48.838;10.112;2023-04-22T09:18:11;19.10;63.90
17762;DHT22;9005;48.838;10.112;2023-04-22T09:20:41;19.20;65.30
17762;DHT22;9005;48.838;10.112;2023-04-22T09:23:08;19.50;62.10
17762;DHT22;9005;48.838;10.112;2023-04-22T09:25:37;19.80;61.50
17762;DHT22;9005;48.838;10.112;2023-04-22T09:28:04;19.90;58.30
17762;DHT22;9005;48.838;10.112;2023-04-22T09:30:32;20.10;58.40
17762;DHT22;9005;48.838;10.112;2023-04-22T09:33:01;20.30;57.50
17762;DHT22;9005;48.838;10.112;2023-04-22T09:35:29;20.30;59.50
17762;DHT22;9005;48.838;10.112;2023-04-22T09:37:57;20.40;59.10
17762;DHT22;9005;48.838;10.112;2023-04-22T09:40:25;20.60;56.80
17762;DHT22;9005;48.838;10.112;2023-04-22T09:42:55;20.70;56.00
17762;DHT22;9005;48.838;10.112;2023-04-22T09:45:30;20.90;56.70
17762;DHT22;9005;48.838;10.112;2023-04-22T09:48:01;21.20;55.00
17762;DHT22;9005;48.838;10.112;2023-04-22T09:50:28;21.20;53.30
17762;DHT22;9005;48.838;10.112;2023-04-22T09:52:57;21.40;55.10
17762;DHT22;9005;48.838;10.112;2023-04-22T09:55:25;21.50;58.70
17762;DHT22;9005;48.838;10.112;2023-04-22T09:57:54;21.70;55.80
17762;DHT22;9005;48.838;10.112;2023-04-22T10:00:23;21.80;52.90
17762;DHT22;9005;48.838;10.112;2023-04-22T10:02:50;21.80;50.50
17762;DHT22;9005;48.838;10.112;2023-04-22T10:05:16;21.70;49.40
17762;DHT22;9005;48.838;10.112;2023-04-22T10:07:43;21.60;47.80
17762;DHT22;9005;48.838;10.112;2023-04-22T10:10:10;20.70;46.80
17762;DHT22;9005;48.838;10.112;2023-04-22T10:12:37;20.60;48.60
17762;DHT22;9005;48.838;10.112;2023-04-22T10:15:06;20.60;50.90
17762;DHT22;9005;48.838;10.112;2023-04-22T10:17:36;20.90;49.70
17762;DHT22;9005;48.838;10.112;2023-04-22T10:20:06;21.20;52.20
17762;DHT22;9005;48.838;10.112;2023-04-22T10:22:38;21.80;50.30
17762;DHT22;9005;48.838;10.112;2023-04-22T10:25:10;22.50;50.70
17762;DHT22;9005;48.838;10.112;2023-04-22T10:27:37;23.00;45.80
17762;DHT22;9005;48.838;10.112;2023-04-22T10:30:08;23.40;45.70
17762;DHT22;9005;48.838;10.112;2023-04-22T10:32:35;23.70;46.90
17762;DHT22;9005;48.838;10.112;2023-04-22T10:35:10;24.00;42.00
17762;DHT22;9005;48.838;10.112;2023-04-22T10:37:40;24.30;44.40
17762;DHT22;9005;48.838;10.112;2023-04-22T10:40:09;24.60;37.20
17762;DHT22;9005;48.838;10.112;2023-04-22T10:42:41;25.10;40.40
17762;DHT22;9005;48.838;10.112;2023-04-22T10:45:12;26.30;39.50
17762;DHT22;9005;48.838;10.112;2023-04-22T10:47:40;27.30;35.70
17762;DHT22;9005;48.838;10.112;2023-04-22T10:50:13;28.20;32.60
17762;DHT22;9005;48.838;10.112;2023-04-22T10:52:41;28.30;29.30
17762;DHT22;9005;48.838;10.112;2023-04-22T10:55:08;29.30;32.20
17762;DHT22;9005;48.838;10.112;2023-04-22T10:57:40;27.50;31.20
17762;DHT22;9005;48.838;10.112;2023-04-22T11:00:29;27.00;29.30
17762;DHT22;9005;48.838;10.112;2023-04-22T11:03:07;26.80;29.80
17762;DHT22;9005;48.838;10.112;2023-04-22T11:05:35;26.60;27.70
17762;DHT22;9005;48.838;10.112;2023-04-22T11:08:03;26.20;28.20
17762;DHT22;9005;48.838;10.112;2023-04-22T11:10:36;26.00;26.60
17762;DHT22;9005;48.838;10.112;2023-04-22T11:13:07;25.90;28.40
17762;DHT22;9005;48.838;10.112;2023-04-22T11:15:37;26.20;27.90
17762;DHT22;9005;48.838;10.112;2023-04-22T11:18:12;26.60;27.40
17762;DHT22;9005;48.838;10.112;2023-04-22T11:20:39;27.20;27.10
17762;DHT22;9005;48.838;10.112;2023-04-22T11:23:06;27.90;24.70
17762;DHT22;9005;48.838;10.112;2023-04-22T11:25:33;28.40;23.80
17762;DHT22;9005;48.838;10.112;2023-04-22T11:27:59;28.60;24.90
17762;DHT22;9005;48.838;10.112;2023-04-22T11:30:27;28.50;23.70
17762;DHT22;9005;48.838;10.112;2023-04-22T11:32:58;28.40;23.40
17762;DHT22;9005;48.838;10.112;2023-04-22T11:35:28;28.60;22.40
17762;DHT22;9005;48.838;10.112;2023-04-22T11:37:57;28.30;21.60
17762;DHT22;9005;48.838;10.112;2023-04-22T11:40:26;27.80;22.50
17762;DHT22;9005;48.838;10.112;2023-04-22T11:42:54;27.80;24.30
17762;DHT22;9005;48.838;10.112;2023-04-22T11:45:21;28.30;21.20
17762;DHT22;9005;48.838;10.112;2023-04-22T11:47:49;28.70;21.40
17762;DHT22;9005;48.838;10.112;2023-04-22T11:50:21;29.30;22.20
17762;DHT22;9005;48.838;10.112;2023-04-22T11:52:50;29.80;21.60
17762;DHT22;9005;48.838;10.112;2023-04-22T11:55:20;30.10;20.90
17762;DHT22;9005;48.838;10.112;2023-04-22T11:57:52;29.90;21.40
17762;DHT22;9005;48.838;10.112;2023-04-22T12:00:19;30.00;21.80
17762;DHT22;9005;48.838;10.112;2023-04-22T12:02:57;30.00;20.90
17762;DHT22;9005;48.838;10.112;2023-04-22T12:05:36;29.70;23.10
17762;DHT22;9005;48.838;10.112;2023-04-22T12:08:08;29.90;24.00
17762;DHT22;9005;48.838;10.112;2023-04-22T12:10:42;30.20;22.40
17762;DHT22;9005;48.838;10.112;2023-04-22T12:13:09;30.70;20.60
17762;DHT22;9005;48.838;10.112;2023-04-22T12:15:37;29.60;18.80
17762;DHT22;9005;48.838;10.112;2023-04-22T12:18:04;28.90;20.10
17762;DHT22;9005;48.838;10.112;2023-04-22T12:20:33;28.80;20.30
17762;DHT22;9005;48.838;10.112;2023-04-22T12:23:01;28.90;20.40
17762;DHT22;9005;48.838;10.112;2023-04-22T12:25:28;29.50;20.50
17762;DHT22;9005;48.838;10.112;2023-04-22T12:27:57;29.60;19.90
17762;DHT22;9005;48.838;10.112;2023-04-22T12:30:24;29.90;19.50
17762;DHT22;9005;48.838;10.112;2023-04-22T12:32:51;30.40;18.50
17762;DHT22;9005;48.838;10.112;2023-04-22T12:35:17;31.10;19.40
17762;DHT22;9005;48.838;10.112;2023-04-22T12:37:45;31.60;18.40
17762;DHT22;9005;48.838;10.112;2023-04-22T12:40:13;31.50;18.30
17762;DHT22;9005;48.838;10.112;2023-04-22T12:42:40;31.30;17.90
17762;DHT22;9005;48.838;10.112;2023-04-22T12:45:07;31.20;19.50
17762;DHT22;9005;48.838;10.112;2023-04-22T12:47:34;30.70;18.00
17762;DHT22;9005;48.838;10.112;2023-04-22T12:50:01;30.20;19.40
17762;DHT22;9005;48.838;10.112;2023-04-22T12:52:31;29.90;21.10
17762;DHT22;9005;48.838;10.112;2023-04-22T12:54:58;29.80;19.50
17762;DHT22;9005;48.838;10.112;2023-04-22T12:57:26;29.30;18.50
17762;DHT22;9005;48.838;10.112;2023-04-22T12:59:53;28.10;19.50
17762;DHT22;9005;48.838;10.112;2023-04-22T13:02:20;27.50;20.30
17762;DHT22;9005;48.838;10.112;2023-04-22T13:04:46;27.20;20.10
17762;DHT22;9005;48.838;10.112;2023-04-22T13:07:13;26.40;20.30
17762;DHT22;9005;48.838;10.112;2023-04-22T13:09:41;25.90;21.00
17762;DHT22;9005;48.838;10.112;2023-04-22T13:12:08;25.70;22.30
17762;DHT22;9005;48.838;10.112;2023-04-22T13:14:36;25.90;22.40
17762;DHT22;9005;48.838;10.112;2023-04-22T13:17:03;26.50;22.60
17762;DHT22;9005;48.838;10.112;2023-04-22T13:19:30;26.80;21.70
17762;DHT22;9005;48.838;10.112;2023-04-22T13:21:59;26.40;19.70
17762;DHT22;9005;48.838;10.112;2023-04-22T13:24:26;25.10;20.30
17762;DHT22;9005;48.838;10.112;2023-04-22T13:26:53;24.40;21.60
17762;DHT22;9005;48.838;10.112;2023-04-22T13:29:20;24.00;23.00
17762;DHT22;9005;48.838;10.112;2023-04-22T13:31:48;24.40;22.50
17762;DHT22;9005;48.838;10.112;2023-04-22T13:34:15;24.60;22.10
17762;DHT22;9005;48.838;10.112;2023-04-22T13:36:42;25.00;22.50
17762;DHT22;9005;48.838;10.112;2023-04-22T13:39:09;25.20;21.00
17762;DHT22;9005;48.838;10.112;2023-04-22T13:41:35;25.50;21.40
17762;DHT22;9005;48.838;10.112;2023-04-22T13:44:02;25.30;21.60
17762;DHT22;9005;48.838;10.112;2023-04-22T13:46:29;24.90;22.60
17762;DHT22;9005;48.838;10.112;2023-04-22T13:48:57;24.00;22.60
17762;DHT22;9005;48.838;10.112;2023-04-22T13:51:24;23.40;24.40
17762;DHT22;9005;48.838;10.112;2023-04-22T13:53:50;23.10;24.30
17762;DHT22;9005;48.838;10.112;2023-04-22T13:56:17;23.00;26.50
17762;DHT22;9005;48.838;10.112;2023-04-22T13:58:44;23.00;27.80
17762;DHT22;9005;48.838;10.112;2023-04-22T14:01:11;23.10;26.80
17762;DHT22;9005;48.838;10.112;2023-04-22T14:03:37;22.80;25.70
17762;DHT22;9005;48.838;10.112;2023-04-22T14:06:06;22.40;26.50
17762;DHT22;9005;48.838;10.112;2023-04-22T14:08:32;22.10;26.00
17762;DHT22;9005;48.838;10.112;2023-04-22T14:10:59;22.10;26.50
17762;DHT22;9005;48.838;10.112;2023-04-22T14:13:28;22.10;26.40
17762;DHT22;9005;48.838;10.112;2023-04-22T14:15:55;21.90;25.60
17762;DHT22;9005;48.838;10.112;2023-04-22T14:18:22;21.90;26.30
17762;DHT22;9005;48.838;10.112;2023-04-22T14:20:49;21.80;26.60
17762;DHT22;9005;48.838;10.112;2023-04-22T14:23:17;21.70;26.40
17762;DHT22;9005;48.838;10.112;2023-04-22T14:25:44;21.60;27.10
17762;DHT22;9005;48.838;10.112;2023-04-22T14:28:11;21.40;26.80
17762;DHT22;9005;48.838;10.112;2023-04-22T14:30:38;21.20;27.50
17762;DHT22;9005;48.838;10.112;2023-04-22T14:33:05;21.10;28.50
17762;DHT22;9005;48.838;10.112;2023-04-22T14:35:32;21.00;27.60
17762;DHT22;9005;48.838;10.112;2023-04-22T14:37:59;21.00;28.20
17762;DHT22;9005;48.838;10.112;2023-04-22T14:40:27;21.10;29.30
17762;DHT22;9005;48.838;10.112;2023-04-22T14:42:54;21.20;28.80
17762;DHT22;9005;48.838;10.112;2023-04-22T14:45:23;21.30;27.80
17762;DHT22;9005;48.838;10.112;2023-04-22T14:47:50;21.30;28.80
17762;DHT22;9005;48.838;10.112;2023-04-22T14:50:16;21.20;28.50
17762;DHT22;9005;48.838;10.112;2023-04-22T14:52:44;21.00;27.00
17762;DHT22;9005;48.838;10.112;2023-04-22T14:55:11;20.80;26.60
17762;DHT22;9005;48.838;10.112;2023-04-22T14:57:39;20.70;27.00
17762;DHT22;9005;48.838;10.112;2023-04-22T15:00:08;20.60;27.90
17762;DHT22;9005;48.838;10.112;2023-04-22T15:02:35;20.50;29.20
17762;DHT22;9005;48.838;10.112;2023-04-22T15:05:02;20.40;29.30
17762;DHT22;9005;48.838;10.112;2023-04-22T15:07:29;20.30;29.40
17762;DHT22;9005;48.838;10.112;2023-04-22T15:09:56;20.30;30.90
17762;DHT22;9005;48.838;10.112;2023-04-22T15:12:23;20.30;32.40
17762;DHT22;9005;48.838;10.112;2023-04-22T15:14:51;20.30;33.80
17762;DHT22;9005;48.838;10.112;2023-04-22T15:17:18;20.30;35.50
17762;DHT22;9005;48.838;10.112;2023-04-22T15:19:44;20.20;35.50
17762;DHT22;9005;48.838;10.112;2023-04-22T15:22:11;20.20;37.60
17762;DHT22;9005;48.838;10.112;2023-04-22T15:24:38;20.10;37.60
17762;DHT22;9005;48.838;10.112;2023-04-22T15:27:06;20.10;37.90
17762;DHT22;9005;48.838;10.112;2023-04-22T15:29:33;19.90;38.60
17762;DHT22;9005;48.838;10.112;2023-04-22T15:32:01;19.80;40.10
17762;DHT22;9005;48.838;10.112;2023-04-22T15:34:28;19.70;41.10
17762;DHT22;9005;48.838;10.112;2023-04-22T15:36:55;19.60;41.80
17762;DHT22;9005;48.838;10.112;2023-04-22T15:39:22;19.60;42.00
17762;DHT22;9005;48.838;10.112;2023-04-22T15:41:49;19.50;43.60
17762;DHT22;9005;48.838;10.112;2023-04-22T15:44:16;19.50;43.10
17762;DHT22;9005;48.838;10.112;2023-04-22T15:46:44;19.50;43.10
17762;DHT22;9005;48.838;10.112;2023-04-22T15:49:13;19.50;43.50
17762;DHT22;9005;48.838;10.112;2023-04-22T15:51:41;19.50;44.10
17762;DHT22;9005;48.838;10.112;2023-04-22T15:54:07;19.60;46.00
17762;DHT22;9005;48.838;10.112;2023-04-22T15:56:34;19.50;48.20
17762;DHT22;9005;48.838;10.112;2023-04-22T15:59:01;19.50;50.10
17762;DHT22;9005;48.838;10.112;2023-04-22T16:01:28;19.40;49.60
17762;DHT22;9005;48.838;10.112;2023-04-22T16:03:55;19.40;50.50
17762;DHT22;9005;48.838;10.112;2023-04-22T16:06:23;19.40;50.20
17762;DHT22;9005;48.838;10.112;2023-04-22T16:08:50;19.30;51.60
17762;DHT22;9005;48.838;10.112;2023-04-22T16:11:16;19.30;52.40
17762;DHT22;9005;48.838;10.112;2023-04-22T16:13:43;19.20;54.10
17762;DHT22;9005;48.838;10.112;2023-04-22T16:16:10;19.20;53.50
17762;DHT22;9005;48.838;10.112;2023-04-22T16:18:37;19.10;53.70
17762;DHT22;9005;48.838;10.112;2023-04-22T16:21:05;19.10;56.40
17762;DHT22;9005;48.838;10.112;2023-04-22T16:23:33;19.10;55.70
17762;DHT22;9005;48.838;10.112;2023-04-22T16:26:00;19.00;54.40
17762;DHT22;9005;48.838;10.112;2023-04-22T16:28:29;19.00;55.70
17762;DHT22;9005;48.838;10.112;2023-04-22T16:30:55;19.00;55.70
17762;DHT22;9005;48.838;10.112;2023-04-22T16:33:23;18.90;57.90
17762;DHT22;9005;48.838;10.112;2023-04-22T16:35:50;18.90;58.30
17762;DHT22;9005;48.838;10.112;2023-04-22T16:38:17;18.80;58.30
17762;DHT22;9005;48.838;10.112;2023-04-22T16:40:45;18.80;60.00
17762;DHT22;9005;48.838;10.112;2023-04-22T16:43:12;18.80;62.30
17762;DHT22;9005;48.838;10.112;2023-04-22T16:45:39;18.70;61.10
17762;DHT22;9005;48.838;10.112;2023-04-22T16:48:06;18.70;66.70
17762;DHT22;9005;48.838;10.112;2023-04-22T16:50:32;18.70;65.60
17762;DHT22;9005;48.838;10.112;2023-04-22T16:52:59;18.70;72.70
17762;DHT22;9005;48.838;10.112;2023-04-22T16:55:26;18.70;71.40
17762;DHT22;9005;48.838;10.112;2023-04-22T16:57:54;18.70;66.30
17762;DHT22;9005;48.838;10.112;2023-04-22T17:00:22;18.60;66.00
17762;DHT22;9005;48.838;10.112;2023-04-22T17:02:49;18.60;70.60
17762;DHT22;9005;48.838;10.112;2023-04-22T17:05:16;18.60;76.20
17762;DHT22;9005;48.838;10.112;2023-04-22T17:07:43;18.50;70.00
17762;DHT22;9005;48.838;10.112;2023-04-22T17:10:10;18.40;71.20
17762;DHT22;9005;48.838;10.112;2023-04-22T17:12:37;18.40;73.20
17762;DHT22;9005;48.838;10.112;2023-04-22T17:15:06;18.50;75.30
17762;DHT22;9005;48.838;10.112;2023-04-22T17:17:33;18.20;76.20
17762;DHT22;9005;48.838;10.112;2023-04-22T17:20:00;18.20;79.00
17762;DHT22;9005;48.838;10.112;2023-04-22T17:22:27;18.10;92.10
17762;DHT22;9005;48.838;10.112;2023-04-22T17:24:53;17.80;95.00
17762;DHT22;9005;48.838;10.112;2023-04-22T17:27:23;17.50;99.90
17762;DHT22;9005;48.838;10.112;2023-04-22T17:29:49;17.20;99.90
17762;DHT22;9005;48.838;10.112;2023-04-22T17:32:17;17.00;99.90
17762;DHT22;9005;48.838;10.112;2023-04-22T17:34:44;17.00;99.90
17762;DHT22;9005;48.838;10.112;2023-04-22T17:37:11;17.00;99.90
17762;DHT22;9005;48.838;10.112;2023-04-22T17:39:38;17.00;99.90
17762;DHT22;9005;48.838;10.112;2023-04-22T17:42:06;17.10;99.90
17762;DHT22;9005;48.838;10.112;2023-04-22T17:44:33;17.20;99.90
17762;DHT22;9005;48.838;10.112;2023-04-22T17:46:59;17.20;99.90
17762;DHT22;9005;48.838;10.112;2023-04-22T17:49:28;17.20;99.90
17762;DHT22;9005;48.838;10.112;2023-04-22T17:51:54;17.30;99.90
17762;DHT22;9005;48.838;10.112;2023-04-22T17:54:22;17.30;99.90
17762;DHT22;9005;48.838;10.112;2023-04-22T17:56:48;17.30;99.90
17762;DHT22;9005;48.838;10.112;2023-04-22T17:59:15;17.20;99.90
17762;DHT22;9005;48.838;10.112;2023-04-22T18:01:42;17.20;99.90
17762;DHT22;9005;48.838;10.112;2023-04-22T18:04:08;17.20;99.90
17762;DHT22;9005;48.838;10.112;2023-04-22T18:06:37;17.10;99.90
17762;DHT22;9005;48.838;10.112;2023-04-22T18:09:03;17.10;99.90
17762;DHT22;9005;48.838;10.112;2023-04-22T18:11:30;17.10;99.90
17762;DHT22;9005;48.838;10.112;2023-04-22T18:13:57;17.00;99.90
17762;DHT22;9005;48.838;10.112;2023-04-22T18:16:24;17.00;99.90
17762;DHT22;9005;48.838;10.112;2023-04-22T18:18:50;16.90;99.90
17762;DHT22;9005;48.838;10.112;2023-04-22T18:21:17;16.90;99.90
17762;DHT22;9005;48.838;10.112;2023-04-22T18:23:45;16.80;99.90
17762;DHT22;9005;48.838;10.112;2023-04-22T18:26:12;16.80;99.90
17762;DHT22;9005;48.838;10.112;2023-04-22T18:28:39;16.70;99.90
17762;DHT22;9005;48.838;10.112;2023-04-22T18:31:07;16.70;99.90
17762;DHT22;9005;48.838;10.112;2023-04-22T18:33:34;16.60;99.90
17762;DHT22;9005;48.838;10.112;2023-04-22T18:36:01;16.60;99.90
17762;DHT22;9005;48.838;10.112;2023-04-22T18:38:28;16.50;99.90
17762;DHT22;9005;48.838;10.112;2023-04-22T18:40:56;16.50;99.90
17762;DHT22;9005;48.838;10.112;2023-04-22T18:43:23;16.40;99.90
17762;DHT22;9005;48.838;10.112;2023-04-22T18:45:49;16.40;99.90
17762;DHT22;9005;48.838;10.112;2023-04-22T18:48:16;16.30;99.90
17762;DHT22;9005;48.838;10.112;2023-04-22T18:50:44;16.40;99.90
17762;DHT22;9005;48.838;10.112;2023-04-22T18:53:11;16.50;99.90
17762;DHT22;9005;48.838;10.112;2023-04-22T18:55:40;16.60;99.50
17762;DHT22;9005;48.838;10.112;2023-04-22T18:58:08;16.70;97.20
17762;DHT22;9005;48.838;10.112;2023-04-22T19:00:35;16.90;94.80
17762;DHT22;9005;48.838;10.112;2023-04-22T19:03:02;17.00;93.80
17762;DHT22;9005;48.838;10.112;2023-04-22T19:05:29;17.00;93.90
17762;DHT22;9005;48.838;10.112;2023-04-22T19:07:55;16.90;98.40
17762;DHT22;9005;48.838;10.112;2023-04-22T19:10:22;16.40;99.90
17762;DHT22;9005;48.838;10.112;2023-04-22T19:12:50;16.20;99.90
17762;DHT22;9005;48.838;10.112;2023-04-22T19:15:18;16.00;99.90
17762;DHT22;9005;48.838;10.112;2023-04-22T19:17:46;16.00;99.90
17762;DHT22;9005;48.838;10.112;2023-04-22T19:20:12;16.00;99.90
17762;DHT22;9005;48.838;10.112;2023-04-22T19:22:39;16.10;99.90
17762;DHT22;9005;48.838;10.112;2023-04-22T19:25:07;16.10;99.90
17762;DHT22;9005;48.838;10.112;2023-04-22T19:27:34;16.20;99.90
17762;DHT22;9005;48.838;10.112;2023-04-22T19:30:01;16.20;99.90
17762;DHT22;9005;48.838;10.112;2023-04-22T19:32:30;16.20;99.90
17762;DHT22;9005;48.838;10.112;2023-04-22T19:34:56;16.20;99.90
17762;DHT22;9005;48.838;10.112;2023-04-22T19:37:23;16.20;99.90
17762;DHT22;9005;48.838;10.112;2023-04-22T19:39:51;16.10;99.90
17762;DHT22;9005;48.838;10.112;2023-04-22T19:42:18;16.10;99.90
17762;DHT22;9005;48.838;10.112;2023-04-22T19:44:45;16.10;99.90
17762;DHT22;9005;48.838;10.112;2023-04-22T19:47:13;15.90;99.90
17762;DHT22;9005;48.838;10.112;2023-04-22T19:49:41;15.90;99.90
17762;DHT22;9005;48.838;10.112;2023-04-22T19:52:09;15.90;99.90
17762;DHT22;9005;48.838;10.112;2023-04-22T19:54:37;15.80;99.90
17762;DHT22;9005;48.838;10.112;2023-04-22T19:57:05;15.80;99.90
17762;DHT22;9005;48.838;10.112;2023-04-22T19:59:32;15.80;99.90
17762;DHT22;9005;48.838;10.112;2023-04-22T20:01:59;15.80;99.90
17762;DHT22;9005;48.838;10.112;2023-04-22T20:04:27;15.80;99.90
17762;DHT22;9005;48.838;10.112;2023-04-22T20:06:55;15.80;99.90
17762;DHT22;9005;48.838;10.112;2023-04-22T20:09:24;15.70;99.90
17762;DHT22;9005;48.838;10.112;2023-04-22T20:11:51;15.70;99.90
17762;DHT22;9005;48.838;10.112;2023-04-22T20:14:19;15.60;99.90
17762;DHT22;9005;48.838;10.112;2023-04-22T20:16:47;15.50;99.90
17762;DHT22;9005;48.838;10.112;2023-04-22T20:19:14;15.40;99.90
17762;DHT22;9005;48.838;10.112;2023-04-22T20:21:41;15.30;99.90
17762;DHT22;9005;48.838;10.112;2023-04-22T20:24:12;15.20;99.90
17762;DHT22;9005;48.838;10.112;2023-04-22T20:26:44;15.10;99.90
17762;DHT22;9005;48.838;10.112;2023-04-22T20:29:11;15.00;99.90
17762;DHT22;9005;48.838;10.112;2023-04-22T20:31:38;14.90;99.90
17762;DHT22;9005;48.838;10.112;2023-04-22T20:34:06;14.80;99.90
17762;DHT22;9005;48.838;10.112;2023-04-22T20:36:34;14.60;99.90
17762;DHT22;9005;48.838;10.112;2023-04-22T20:39:02;14.60;99.90
17762;DHT22;9005;48.838;10.112;2023-04-22T21:11:04;14.10;99.90
17762;DHT22;9005;48.838;10.112;2023-04-22T21:13:31;13.90;99.90
17762;DHT22;9005;48.838;10.112;2023-04-22T21:16:02;13.80;99.90
17762;DHT22;9005;48.838;10.112;2023-04-22T21:18:31;13.70;99.90
17762;DHT22;9005;48.838;10.112;2023-04-22T21:21:00;13.70;99.90
17762;DHT22;9005;48.838;10.112;2023-04-22T21:23:27;13.60;99.90
17762;DHT22;9005;48.838;10.112;2023-04-22T21:25:55;13.60;99.90
17762;DHT22;9005;48.838;10.112;2023-04-22T21:48:01;13.60;99.90
17762;DHT22;9005;48.838;10.112;2023-04-22T21:50:30;13.50;99.90
17762;DHT22;9005;48.838;10.112;2023-04-22T21:52:58;13.40;99.90
17762;DHT22;9005;48.838;10.112;2023-04-22T21:55:25;13.30;99.90
17762;DHT22;9005;48.838;10.112;2023-04-22T21:57:52;13.30;99.90
17762;DHT22;9005;48.838;10.112;2023-04-22T22:00:18;13.20;99.90
17762;DHT22;9005;48.838;10.112;2023-04-22T22:02:46;13.20;99.90
17762;DHT22;9005;48.838;10.112;2023-04-22T22:05:14;13.10;99.90
17762;DHT22;9005;48.838;10.112;2023-04-22T22:07:42;13.00;99.90
17762;DHT22;9005;48.838;10.112;2023-04-22T22:10:11;12.90;99.90
17762;DHT22;9005;48.838;10.112;2023-04-22T22:12:38;12.90;99.90
17762;DHT22;9005;48.838;10.112;2023-04-22T22:15:06;12.90;99.90
17762;DHT22;9005;48.838;10.112;2023-04-22T22:17:33;12.90;99.90
17762;DHT22;9005;48.838;10.112;2023-04-22T22:20:02;12.90;99.90
17762;DHT22;9005;48.838;10.112;2023-04-22T22:22:31;12.90;99.90
17762;DHT22;9005;48.838;10.112;2023-04-22T22:24:59;12.80;99.90
17762;DHT22;9005;48.838;10.112;2023-04-22T22:27:26;12.80;99.90
17762;DHT22;9005;48.838;10.112;2023-04-22T22:29:52;12.90;99.90
17762;DHT22;9005;48.838;10.112;2023-04-22T22:32:19;12.80;99.90
17762;DHT22;9005;48.838;10.112;2023-04-22T22:34:46;12.80;99.90
17762;DHT22;9005;48.838;10.112;2023-04-22T22:37:12;12.80;99.90
17762;DHT22;9005;48.838;10.112;2023-04-22T22:39:39;12.80;99.90
17762;DHT22;9005;48.838;10.112;2023-04-22T22:42:07;12.80;99.90
17762;DHT22;9005;48.838;10.112;2023-04-22T22:44:34;12.80;99.90
17762;DHT22;9005;48.838;10.112;2023-04-22T22:47:01;12.70;99.90
17762;DHT22;9005;48.838;10.112;2023-04-22T22:49:28;12.80;99.90
17762;DHT22;9005;48.838;10.112;2023-04-22T22:51:54;12.80;99.90
17762;DHT22;9005;48.838;10.112;2023-04-22T22:54:21;12.70;99.90
17762;DHT22;9005;48.838;10.112;2023-04-22T22:56:48;12.70;99.90
17762;DHT22;9005;48.838;10.112;2023-04-22T22:59:16;12.70;99.90
17762;DHT22;9005;48.838;10.112;2023-04-22T23:01:43;12.70;99.90
17762;DHT22;9005;48.838;10.112;2023-04-22T23:04:09;12.70;99.90
17762;DHT22;9005;48.838;10.112;2023-04-22T23:06:36;12.70;99.90
17762;DHT22;9005;48.838;10.112;2023-04-22T23:09:03;12.60;99.90
17762;DHT22;9005;48.838;10.112;2023-04-22T23:11:30;12.60;99.90
17762;DHT22;9005;48.838;10.112;2023-04-22T23:13:57;12.60;99.90
17762;DHT22;9005;48.838;10.112;2023-04-22T23:16:25;12.60;99.90
17762;DHT22;9005;48.838;10.112;2023-04-22T23:18:52;12.60;99.90
17762;DHT22;9005;48.838;10.112;2023-04-22T23:21:18;12.60;99.90
17762;DHT22;9005;48.838;10.112;2023-04-22T23:23:46;12.60;99.90
17762;DHT22;9005;48.838;10.112;2023-04-22T23:26:14;12.70;99.90
17762;DHT22;9005;48.838;10.112;2023-04-22T23:28:41;12.70;99.90
17762;DHT22;9005;48.838;10.112;2023-04-22T23:31:08;12.70;99.90
17762;DHT22;9005;48.838;10.112;2023-04-22T23:33:38;12.70;99.90
17762;DHT22;9005;48.838;10.112;2023-04-22T23:36:08;12.80;99.90
17762;DHT22;9005;48.838;10.112;2023-04-22T23:38:38;12.80;99.90
17762;DHT22;9005;48.838;10.112;2023-04-22T23:41:05;12.80;99.90
17762;DHT22;9005;48.838;10.112;2023-04-22T23:43:32;12.80;99.90
17762;DHT22;9005;48.838;10.112;2023-04-22T23:45:58;12.80;99.90
17762;DHT22;9005;48.838;10.112;2023-04-22T23:48:25;12.80;99.90
17762;DHT22;9005;48.838;10.112;2023-04-22T23:50:53;12.70;99.90
17762;DHT22;9005;48.838;10.112;2023-04-22T23:53:20;12.70;99.90
17762;DHT22;9005;48.838;10.112;2023-04-22T23:55:47;12.70;99.90
17762;DHT22;9005;48.838;10.112;2023-04-22T23:58:14;12.70;99.90
